Time;durP1;ratioP1;P1;durP2;ratioP2;P2;SDS_P1;SDS_P2;PMS_P1;PMS_P2;Temp;Humidity;BMP_temperature;BMP_pressure;BME280_temperature;BME280_humidity;BME280_pressure;Samples;Min_cycle;Max_cycle;Signal;HPM_P1;HPM_P2
2022/12/06 00:00:19;;;;;;;14.30;11.73;;;;;;;7.32;59.66;98100.34;8380642;28;20263;-73
2022/12/06 00:04:22;;;;;;;12.90;11.43;;;;;;;7.17;60.54;98093.88;8380751;28;20224;-74
2022/12/06 00:08:26;;;;;;;16.47;12.83;;;;;;;7.35;59.74;98104.53;8380167;28;20292;-74
2022/12/06 00:12:29;;;;;;;13.23;11.83;;;;;;;7.46;59.62;98109.41;8380697;28;20244;-74
2022/12/06 00:16:32;;;;;;;13.33;11.93;;;;;;;7.37;59.53;98108.78;8380584;28;20245;-73
2022/12/06 00:20:35;;;;;;;13.53;11.67;;;;;;;7.36;60.33;98104.50;8380388;28;20540;-74
2022/12/06 00:24:39;;;;;;;12.30;11.10;;;;;;;7.31;59.79;98110.69;8380351;28;20229;-74
2022/12/06 00:28:42;;;;;;;13.87;12.20;;;;;;;7.38;59.72;98110.47;8379970;28;20252;-73
2022/12/06 00:32:45;;;;;;;12.97;11.27;;;;;;;7.35;60.17;98105.41;8380124;28;20519;-73
2022/12/06 00:36:48;;;;;;;12.73;11.40;;;;;;;7.37;60.08;98110.53;8380184;28;20241;-74
2022/12/06 00:40:58;;;;;;;12.53;11.13;;;;;;;7.37;60.28;98108.78;8379986;28;20252;-73
2022/12/06 00:45:01;;;;;;;13.57;11.70;;;;;;;7.38;60.44;98097.56;8379593;28;20287;-73
2022/12/06 00:49:05;;;;;;;13.70;11.83;;;;;;;7.23;60.52;98075.72;8379980;28;20233;-73
2022/12/06 00:53:08;;;;;;;12.63;11.30;;;;;;;7.36;60.00;98089.06;8379917;28;20259;-73
2022/12/06 00:57:12;;;;;;;11.83;10.50;;;;;;;7.35;60.36;98082.22;8379945;28;20271;-73
2022/12/06 01:01:16;;;;;;;11.50;10.30;;;;;;;7.33;60.26;98065.97;8379410;28;20233;-73
2022/12/06 01:05:19;;;;;;;11.30;10.13;;;;;;;7.35;60.45;98077.06;8379442;28;20220;-73
2022/12/06 01:09:22;;;;;;;12.37;9.97;;;;;;;7.44;60.37;98081.97;8379452;28;20275;-75
2022/12/06 01:13:26;;;;;;;12.83;9.70;;;;;;;7.44;59.90;98081.09;8379568;28;20248;-73
2022/12/06 01:17:29;;;;;;;10.87;9.77;;;;;;;7.29;60.58;98078.97;8379881;28;20282;-74
2022/12/06 01:21:32;;;;;;;10.80;9.57;;;;;;;7.39;60.38;98073.50;8382250;28;20460;-73
2022/12/06 01:25:34;;;;;;;10.53;9.37;;;;;;;7.46;59.61;98074.16;8385824;28;20236;-73
2022/12/06 01:29:39;;;;;;;11.97;10.17;;;;;;;7.47;59.71;98078.44;8385741;28;20340;-73
2022/12/06 01:33:42;;;;;;;10.27;9.20;;;;;;;7.56;59.27;98077.31;8385726;28;20231;-73
2022/12/06 01:37:45;;;;;;;11.13;9.67;;;;;;;7.45;59.21;98067.34;8385414;28;20228;-74
2022/12/06 01:41:47;;;;;;;10.43;9.33;;;;;;;7.54;59.36;98067.06;8385625;28;20286;-74
2022/12/06 01:45:52;;;;;;;10.13;8.93;;;;;;;7.53;59.40;98067.09;8385218;28;20255;-74
2022/12/06 01:49:58;;;;;;;9.37;8.37;;;;;;;7.64;59.74;98062.47;8384545;28;20225;-73
2022/12/06 01:54:02;;;;;;;9.63;8.57;;;;;;;7.49;59.42;98061.19;8384829;28;20240;-73
2022/12/06 01:58:09;;;;;;;9.80;8.80;;;;;;;7.61;59.45;98065.13;8384510;28;20456;-73
2022/12/06 02:02:13;;;;;;;10.23;9.27;;;;;;;7.58;59.08;98057.50;8384517;28;20715;-74
2022/12/06 02:06:16;;;;;;;10.20;9.10;;;;;;;7.59;59.39;98059.19;8384643;28;20311;-74
2022/12/06 02:10:19;;;;;;;10.47;9.37;;;;;;;7.54;58.99;98050.72;8384241;28;20237;-74
2022/12/06 02:14:24;;;;;;;11.00;9.90;;;;;;;7.53;59.04;98049.91;8384070;28;20381;-73
2022/12/06 02:18:34;;;;;;;11.10;9.90;;;;;;;7.55;58.58;98042.97;8384144;28;20271;-74
2022/12/06 02:23:11;;;;;;;10.80;9.73;;;;;;;7.50;58.73;98041.41;8383997;28;20232;-73
2022/12/06 02:27:29;;;;;;;11.07;9.90;;;;;;;7.47;59.33;98037.22;8377996;28;20225;-73
2022/12/06 02:31:36;;;;;;;9.10;8.20;;;;;;;7.53;59.29;98039.59;8383309;28;20232;-74
2022/12/06 02:35:41;;;;;;;12.77;9.80;;;;;;;7.46;59.98;98026.94;8383431;28;20233;-74
2022/12/06 02:39:47;;;;;;;10.70;9.60;;;;;;;7.40;59.70;98026.22;8383285;28;20433;-74
2022/12/06 02:43:55;;;;;;;9.97;8.97;;;;;;;7.37;60.14;98023.75;8383193;28;20290;-74
2022/12/06 02:48:01;;;;;;;9.73;8.73;;;;;;;7.42;60.13;98021.91;8382761;28;20406;-73
2022/12/06 02:52:04;;;;;;;9.20;8.30;;;;;;;7.24;60.91;98018.13;8383085;28;20264;-73
2022/12/06 02:56:07;;;;;;;9.77;8.77;;;;;;;7.39;60.55;98013.41;8382991;28;20255;-73
2022/12/06 03:00:36;;;;;;;10.20;8.23;;;;;;;7.52;59.89;98012.16;8382723;28;20229;-73
2022/12/06 03:04:53;;;;;;;9.27;8.27;;;;;;;7.49;60.04;98011.41;8382595;28;20224;-74
2022/12/06 03:09:01;;;;;;;8.97;8.07;;;;;;;7.43;60.57;98012.44;8382229;28;20509;-73
2022/12/06 03:13:09;;;;;;;8.90;8.00;;;;;;;7.56;60.13;98012.91;8382440;28;20237;-73
2022/12/06 03:17:16;;;;;;;8.87;7.97;;;;;;;7.53;60.13;98010.41;8382223;28;20244;-73
2022/12/06 03:21:25;;;;;;;10.07;8.37;;;;;;;7.47;60.57;98016.59;8382117;28;20441;-73
2022/12/06 03:25:29;;;;;;;10.73;9.53;;;;;;;7.51;60.27;98007.03;8382024;28;20233;-74
2022/12/06 03:29:33;;;;;;;11.47;9.43;;;;;;;7.43;60.41;97990.06;8381868;28;20457;-73
2022/12/06 03:33:41;;;;;;;11.57;9.07;;;;;;;7.55;59.97;97988.84;8381710;28;20236;-73
2022/12/06 03:37:49;;;;;;;9.17;8.27;;;;;;;7.61;59.53;97986.06;8381665;28;20228;-73
2022/12/06 03:41:55;;;;;;;8.60;7.80;;;;;;;7.61;60.07;97996.38;8381568;28;20275;-74
2022/12/06 03:46:02;;;;;;;8.07;7.37;;;;;;;7.62;59.43;97986.94;8380107;28;20517;-73
2022/12/06 03:50:09;;;;;;;8.30;7.33;;;;;;;7.58;59.89;97988.75;8381237;28;20237;-74
2022/12/06 03:54:13;;;;;;;8.57;7.63;;;;;;;7.66;59.40;97992.81;8381260;28;22517;-73
2022/12/06 03:58:16;;;;;;;8.60;7.80;;;;;;;7.57;60.50;97997.38;8381121;28;20225;-73
2022/12/06 04:02:19;;;;;;;9.57;8.57;;;;;;;7.54;60.30;97999.19;8380750;28;20453;-73
2022/12/06 04:06:21;;;;;;;9.23;8.23;;;;;;;7.56;60.49;97984.56;8380625;28;20275;-73
2022/12/06 04:10:26;;;;;;;8.93;8.03;;;;;;;7.62;60.54;97985.19;8380745;28;20467;-73
2022/12/06 04:14:31;;;;;;;8.37;7.57;;;;;;;7.67;60.25;97979.03;8380569;28;20302;-73
2022/12/06 04:18:35;;;;;;;8.80;8.00;;;;;;;7.49;60.98;97976.16;8380490;28;20228;-73
2022/12/06 04:28:40;;;;;;;9.60;8.67;;;;;;;7.37;60.58;97961.09;8366559;28;20455;-73
2022/12/06 04:40:02;;;;;;;9.03;8.20;;;;;;;7.55;60.51;97959.66;8373154;28;20229;-73
2022/12/06 04:44:06;;;;;;;9.73;8.30;;;;;;;7.29;61.09;97938.16;8380167;28;20311;-73
2022/12/06 04:48:13;;;;;;;9.20;8.30;;;;;;;7.60;60.25;97953.47;8380262;28;20229;-74
2022/12/06 04:52:17;;;;;;;9.10;8.07;;;;;;;7.62;60.59;97956.00;8379996;28;20225;-74
2022/12/06 04:56:19;;;;;;;9.37;8.47;;;;;;;7.63;60.47;97947.34;8383820;28;20274;-74
2022/12/06 05:00:23;;;;;;;9.37;8.33;;;;;;;7.58;60.59;97942.38;8386279;28;20339;-74
2022/12/06 05:04:26;;;;;;;8.97;8.07;;;;;;;7.53;60.52;97940.81;8386477;28;20232;-74
2022/12/06 05:08:29;;;;;;;8.97;8.13;;;;;;;7.57;61.24;97932.09;8386437;28;20536;-74
2022/12/06 05:12:32;;;;;;;9.00;8.00;;;;;;;7.61;60.95;97938.84;8386260;28;20264;-74
2022/12/06 05:16:36;;;;;;;8.40;7.60;;;;;;;7.62;60.76;97932.81;8385922;28;20598;-74
2022/12/06 05:20:38;;;;;;;8.80;8.00;;;;;;;7.67;60.70;97930.88;8385983;28;20239;-74
2022/12/06 05:24:41;;;;;;;8.50;7.80;;;;;;;7.72;60.44;97934.16;8386063;28;20228;-75
2022/12/06 05:28:45;;;;;;;8.10;7.40;;;;;;;7.37;60.36;97869.19;8385757;28;20302;-75
2022/12/06 05:32:49;;;;;;;8.50;7.67;;;;;;;7.74;60.14;97921.22;8385737;28;20249;-75
2022/12/06 05:36:58;;;;;;;8.37;7.57;;;;;;;7.80;60.37;97928.75;8384945;28;20240;-72
2022/12/06 05:41:03;;;;;;;8.40;7.70;;;;;;;7.82;60.30;97919.22;8384979;28;20240;-72
2022/12/06 05:45:06;;;;;;;7.97;7.27;;;;;;;7.75;60.14;97917.75;8385057;28;20233;-72
2022/12/06 05:49:10;;;;;;;8.60;7.80;;;;;;;7.85;60.38;97916.56;8385124;28;20244;-73
2022/12/06 05:53:13;;;;;;;8.67;7.80;;;;;;;7.77;60.37;97914.25;8384765;28;20485;-73
2022/12/06 05:57:16;;;;;;;8.30;7.50;;;;;;;7.78;60.30;97915.06;8384657;28;20270;-73
2022/12/06 06:01:19;;;;;;;8.07;7.37;;;;;;;7.80;60.52;97918.44;8384758;28;20544;-73
2022/12/06 06:05:23;;;;;;;8.33;7.43;;;;;;;7.83;60.40;97920.94;8384642;28;20233;-73
2022/12/06 06:09:26;;;;;;;8.30;7.60;;;;;;;7.75;60.68;97910.88;8383661;28;20233;-73
2022/12/06 06:13:29;;;;;;;8.13;7.33;;;;;;;7.84;60.24;97914.84;8384261;28;20440;-73
2022/12/06 06:17:32;;;;;;;8.83;7.83;;;;;;;7.82;60.49;97916.66;8384299;28;20248;-73
2022/12/06 06:21:36;;;;;;;8.30;7.43;;;;;;;7.93;60.33;97924.03;8384000;28;20233;-73
2022/12/06 06:25:39;;;;;;;7.63;6.93;;;;;;;7.90;60.46;97921.53;8384080;28;20233;-73
2022/12/06 06:29:42;;;;;;;8.30;7.60;;;;;;;7.82;60.62;97920.09;8383812;28;20596;-72
2022/12/06 06:33:47;;;;;;;7.93;7.13;;;;;;;7.89;61.00;97927.59;8383599;28;20229;-73
2022/12/06 06:37:51;;;;;;;8.00;7.17;;;;;;;7.91;60.84;97921.50;8383745;28;20261;-73
2022/12/06 06:41:54;;;;;;;7.63;6.93;;;;;;;7.90;60.53;97931.84;8382802;28;20457;-74
2022/12/06 06:45:58;;;;;;;7.33;6.63;;;;;;;7.88;60.75;97931.94;8383354;28;20241;-73
2022/12/06 06:50:01;;;;;;;7.70;7.00;;;;;;;8.02;60.59;97934.88;8383309;28;20233;-73
2022/12/06 06:54:06;;;;;;;7.57;6.87;;;;;;;7.97;60.82;97941.06;8383041;28;20229;-73
2022/12/06 06:58:09;;;;;;;7.37;6.77;;;;;;;7.98;60.89;97941.03;8382799;28;20240;-73
2022/12/06 07:02:12;;;;;;;7.70;7.00;;;;;;;8.02;61.26;97931.44;8382658;28;20321;-72
2022/12/06 07:06:15;;;;;;;7.10;6.40;;;;;;;7.98;60.89;97929.88;8382558;28;20228;-73
2022/12/06 07:10:20;;;;;;;7.70;7.00;;;;;;;8.04;60.78;97934.81;8382188;28;20228;-73
2022/12/06 07:14:22;;;;;;;6.90;6.30;;;;;;;8.10;60.82;97937.19;8381571;28;20228;-73
2022/12/06 07:18:26;;;;;;;7.00;6.30;;;;;;;8.07;60.93;97929.53;8380677;28;20243;-73
2022/12/06 07:22:30;;;;;;;11.93;8.00;;;;;;;10.65;80.30;97925.38;8381856;28;20232;-70
2022/12/06 07:26:34;;;;;;;9.10;6.30;;;;;;;11.20;67.14;97928.00;8381730;28;20233;-71
2022/12/06 07:30:36;;;;;;;5.07;4.57;;;;;;;11.23;59.41;97934.78;8381749;28;20246;-73
2022/12/06 07:34:39;;;;;;;4.90;4.50;;;;;;;11.70;56.71;97926.47;8381401;28;20256;-73
2022/12/06 07:38:42;;;;;;;6.07;5.50;;;;;;;10.42;54.50;97919.50;8381270;28;20229;-71
2022/12/06 07:47:06;;;;;;;6.50;6.00;;;;;;;9.22;57.81;97928.81;8374449;28;20285;-72
2022/12/06 07:51:09;;;;;;;7.10;6.50;;;;;;;8.95;58.30;97924.66;8381066;28;20244;-73
2022/12/06 07:55:12;;;;;;;6.87;6.23;;;;;;;8.94;58.95;97935.88;8380923;28;27563;-72
2022/12/06 07:59:16;;;;;;;7.23;6.53;;;;;;;8.77;59.21;97939.09;8380981;28;20280;-72
2022/12/06 08:03:19;;;;;;;7.27;6.60;;;;;;;8.63;59.45;97930.19;8380652;28;20292;-72
2022/12/06 08:07:22;;;;;;;7.23;6.53;;;;;;;8.61;59.95;97935.41;8380564;28;20302;-72
2022/12/06 08:11:25;;;;;;;7.30;6.70;;;;;;;8.56;59.78;97924.41;8380834;28;20283;-72
2022/12/06 08:15:29;;;;;;;7.20;6.60;;;;;;;8.53;59.63;97927.09;8380236;28;20252;-72
2022/12/06 08:19:32;;;;;;;7.00;6.30;;;;;;;8.42;60.40;97919.75;8380474;28;20235;-72
2022/12/06 08:23:35;;;;;;;7.43;6.80;;;;;;;8.46;60.68;97928.22;8380378;28;20286;-72
2022/12/06 08:27:37;;;;;;;7.97;7.17;;;;;;;8.43;60.51;97934.31;8380162;28;20246;-72
2022/12/06 08:31:42;;;;;;;7.20;6.60;;;;;;;8.49;60.67;97934.13;8379806;28;20244;-72
2022/12/06 08:35:45;;;;;;;7.97;6.93;;;;;;;8.41;60.92;97944.72;8380212;28;20446;-72
2022/12/06 08:39:48;;;;;;;7.57;6.63;;;;;;;8.46;61.21;97943.72;8380115;28;20236;-71
2022/12/06 08:43:51;;;;;;;7.70;7.00;;;;;;;8.44;61.15;97937.75;8379867;28;20233;-71
2022/12/06 08:47:55;;;;;;;7.97;6.73;;;;;;;8.44;60.89;97938.59;8379567;28;20447;-71
2022/12/06 08:51:58;;;;;;;7.73;7.03;;;;;;;8.30;61.43;97940.78;8379539;28;20225;-71
2022/12/06 08:56:01;;;;;;;7.67;6.87;;;;;;;8.25;61.58;97934.97;8379769;28;20228;-71
2022/12/06 09:00:06;;;;;;;6.87;6.17;;;;;;;8.41;61.14;97934.41;8379497;28;20555;-71
2022/12/06 09:04:11;;;;;;;7.70;7.00;;;;;;;8.43;61.01;97930.91;8379857;28;20229;-71
2022/12/06 09:08:14;;;;;;;7.87;7.17;;;;;;;8.32;61.69;97939.00;8379823;28;20225;-71
2022/12/06 09:12:17;;;;;;;7.43;6.60;;;;;;;8.30;61.10;97933.03;8379623;28;20243;-71
2022/12/06 09:16:21;;;;;;;7.23;6.57;;;;;;;8.39;61.08;97938.72;8379471;28;20286;-71
2022/12/06 09:20:25;;;;;;;8.27;7.30;;;;;;;8.17;61.88;97936.06;8379375;28;20228;-71
2022/12/06 09:24:28;;;;;;;7.07;6.47;;;;;;;8.12;61.73;97932.81;8379493;28;20270;-71
2022/12/06 09:28:32;;;;;;;6.67;6.07;;;;;;;8.02;61.52;97934.88;8379315;28;20256;-71
2022/12/06 09:32:35;;;;;;;7.30;6.60;;;;;;;8.28;61.32;97934.84;8379266;28;20259;-71
2022/12/06 09:36:43;;;;;;;7.87;7.17;;;;;;;8.22;60.79;97948.78;8379089;28;20233;-71
2022/12/06 09:40:52;;;;;;;6.27;5.73;;;;;;;8.18;61.14;97944.66;8379167;28;20240;-72
2022/12/06 09:45:11;;;;;;;6.83;6.23;;;;;;;8.16;61.64;97941.28;8384482;28;20229;-71
2022/12/06 09:49:30;;;;;;;6.80;6.03;;;;;;;8.06;61.12;97922.72;8385044;28;20225;-72
2022/12/06 09:53:44;;;;;;;7.63;6.83;;;;;;;8.14;61.64;97936.16;8384857;28;20240;-71
2022/12/06 09:57:53;;;;;;;7.40;6.70;;;;;;;8.17;61.71;97930.09;8385049;28;20224;-72
2022/12/06 10:02:05;;;;;;;7.37;6.67;;;;;;;8.30;60.66;97927.88;8383987;28;20300;-72
2022/12/06 10:06:11;;;;;;;6.90;6.20;;;;;;;8.17;61.68;97923.19;8384394;28;20579;-72
2022/12/06 10:10:21;;;;;;;6.37;5.77;;;;;;;8.21;62.26;97927.31;8384302;28;20228;-72
2022/12/06 10:14:37;;;;;;;8.20;7.37;;;;;;;8.21;62.04;97927.31;8384344;28;20233;-72
2022/12/06 10:18:59;;;;;;;6.20;5.70;;;;;;;7.98;62.00;97928.13;8384020;28;20244;-72
2022/12/06 10:23:12;;;;;;;6.77;6.17;;;;;;;8.14;61.92;97927.59;8373014;28;20229;-72
2022/12/06 10:27:23;;;;;;;6.23;5.63;;;;;;;8.30;62.07;97926.16;8384079;28;20528;-72
2022/12/06 10:31:28;;;;;;;5.50;5.00;;;;;;;8.16;61.97;97928.38;8383706;28;20233;-72
2022/12/06 10:35:40;;;;;;;5.20;4.80;;;;;;;7.96;62.31;97908.47;8383581;28;20233;-72
2022/12/06 10:39:49;;;;;;;4.40;4.10;;;;;;;8.13;61.65;97920.75;8383712;28;20540;-72
2022/12/06 10:43:58;;;;;;;4.40;4.10;;;;;;;8.22;61.23;97916.13;8382761;28;20225;-71
2022/12/06 10:48:02;;;;;;;4.10;3.80;;;;;;;8.08;60.91;97913.19;8383331;28;20228;-73
2022/12/06 10:52:20;;;;;;;5.30;4.00;;;;;;;8.19;60.58;97908.47;8383016;28;20244;-72
2022/12/06 10:56:26;;;;;;;4.13;3.83;;;;;;;8.13;61.52;97911.28;8383201;28;20525;-72
2022/12/06 11:00:34;;;;;;;4.30;4.00;;;;;;;8.06;60.83;97902.06;8383151;28;20275;-72
2022/12/06 11:04:38;;;;;;;3.87;3.57;;;;;;;8.32;60.67;97915.78;8383045;28;20233;-72
2022/12/06 11:08:42;;;;;;;4.57;4.20;;;;;;;8.26;61.24;97903.09;8382671;28;20433;-72
2022/12/06 11:12:45;;;;;;;4.40;4.07;;;;;;;8.26;61.09;97892.78;8382503;28;20299;-72
2022/12/06 11:16:54;;;;;;;4.10;3.80;;;;;;;8.16;61.42;97903.41;8382678;28;20245;-72
2022/12/06 11:21:00;;;;;;;4.20;3.80;;;;;;;8.15;61.23;97900.91;8382118;28;20233;-72
2022/12/06 11:25:06;;;;;;;4.67;4.27;;;;;;;8.01;61.49;97901.38;8381866;28;20225;-72
2022/12/06 11:29:11;;;;;;;4.17;3.87;;;;;;;8.26;61.89;97909.09;8380886;28;20236;-72
2022/12/06 11:33:15;;;;;;;5.37;4.83;;;;;;;8.31;61.13;97896.03;8381427;28;20231;-72
2022/12/06 11:37:19;;;;;;;3.43;3.13;;;;;;;8.20;61.42;97888.69;8381266;28;20428;-72
2022/12/06 11:41:25;;;;;;;3.30;3.00;;;;;;;8.25;61.07;97891.94;8380687;28;20240;-72
2022/12/06 11:45:30;;;;;;;2.93;2.73;;;;;;;8.25;61.34;97875.63;8380841;28;20228;-72
2022/12/06 11:49:37;;;;;;;3.10;2.90;;;;;;;8.14;60.32;97883.75;8380544;28;20282;-72
2022/12/06 11:53:47;;;;;;;2.90;2.70;;;;;;;8.23;60.65;97888.59;8380453;28;20533;-72
2022/12/06 11:57:52;;;;;;;3.10;2.63;;;;;;;8.26;60.96;97885.03;8380389;28;20290;-72
2022/12/06 12:01:56;;;;;;;2.20;2.00;;;;;;;8.31;61.05;97885.72;8379800;28;20306;-72
2022/12/06 12:06:18;;;;;;;2.50;2.30;;;;;;;8.26;60.43;97880.72;8379430;28;20228;-72
2022/12/06 12:10:34;;;;;;;2.90;2.70;;;;;;;8.30;60.62;97884.88;8380087;28;20283;-72
2022/12/06 12:14:39;;;;;;;3.37;2.40;;;;;;;8.18;60.99;97878.41;8379894;28;20259;-72
2022/12/06 12:18:49;;;;;;;2.30;2.10;;;;;;;8.24;61.45;97877.34;8380047;28;20232;-73
2022/12/06 12:22:57;;;;;;;2.67;2.47;;;;;;;8.14;61.13;97858.78;8379128;28;20438;-72
2022/12/06 12:27:00;;;;;;;2.27;2.17;;;;;;;8.22;61.19;97873.97;8379403;28;20328;-71
2022/12/06 12:31:09;;;;;;;2.63;2.43;;;;;;;8.26;61.33;97880.72;8379635;28;20229;-72
2022/12/06 12:35:26;;;;;;;2.33;2.13;;;;;;;8.26;60.66;97874.72;8379210;28;20290;-72
2022/12/06 12:39:33;;;;;;;2.10;2.00;;;;;;;7.82;61.56;97870.25;8379511;28;20233;-71
2022/12/06 12:43:36;;;;;;;2.33;2.23;;;;;;;8.02;60.25;97864.41;8379014;28;20260;-71
2022/12/06 12:47:39;;;;;;;2.60;2.40;;;;;;;7.89;60.68;97861.41;8379506;28;20237;-70
2022/12/06 12:51:42;;;;;;;2.20;2.00;;;;;;;7.78;61.50;97859.19;8379319;28;20241;-71
2022/12/06 12:56:06;;;;;;;2.10;2.00;;;;;;;8.12;60.23;97865.75;8379085;28;20225;-71
2022/12/06 13:00:14;;;;;;;2.20;2.10;;;;;;;7.84;60.63;97865.88;8379011;28;20225;-71
2022/12/06 13:04:41;;;;;;;2.70;2.50;;;;;;;8.03;59.87;97871.22;8379072;28;20539;-71
2022/12/06 13:08:44;;;;;;;2.63;2.53;;;;;;;7.89;60.83;97865.72;8376192;28;20283;-70
2022/12/06 13:12:50;;;;;;;2.40;2.30;;;;;;;7.95;60.20;97871.50;8379367;28;20394;-71
2022/12/06 13:16:55;;;;;;;2.60;2.40;;;;;;;8.15;60.18;97872.53;8380079;28;20244;-70
2022/12/06 13:21:01;;;;;;;2.77;2.57;;;;;;;7.93;60.41;97868.13;8384997;28;20541;-71
2022/12/06 13:25:07;;;;;;;2.67;2.47;;;;;;;7.97;60.70;97858.56;8384220;28;20237;-71
2022/12/06 13:29:21;;;;;;;2.90;2.70;;;;;;;7.69;61.79;97861.25;8384719;28;20233;-71
2022/12/06 13:33:26;;;;;;;3.00;2.80;;;;;;;7.68;60.85;97855.25;8384894;28;20232;-71
2022/12/06 13:37:34;;;;;;;3.00;2.80;;;;;;;7.85;60.83;97859.00;8384794;28;20294;-71
2022/12/06 13:46:27;;;;;;;3.20;2.90;;;;;;;7.97;60.19;97856.81;8382482;28;20220;-71
2022/12/06 13:50:51;;;;;;;3.40;3.10;;;;;;;7.88;60.61;97857.16;8383841;28;20546;-70
2022/12/06 13:54:54;;;;;;;6.83;4.53;;;;;;;7.68;61.40;97860.41;8383554;28;20235;-70
2022/12/06 13:58:58;;;;;;;5.30;4.20;;;;;;;7.77;60.89;97867.84;8384504;28;20426;-71
2022/12/06 14:03:10;;;;;;;6.83;5.00;;;;;;;7.44;61.43;97860.38;8383592;28;20320;-71
2022/12/06 14:07:13;;;;;;;7.90;5.60;;;;;;;7.48;61.71;97860.25;8383286;28;20343;-71
2022/12/06 14:11:21;;;;;;;11.20;6.90;;;;;;;7.62;61.38;97864.03;8383612;28;20334;-71
2022/12/06 14:15:24;;;;;;;9.83;6.83;;;;;;;7.69;60.93;97858.66;8383456;28;20232;-71
2022/12/06 14:19:31;;;;;;;6.10;5.50;;;;;;;7.54;61.14;97868.63;8383245;28;20232;-71
2022/12/06 14:23:35;;;;;;;4.90;4.50;;;;;;;7.38;61.62;97878.56;8383174;28;20241;-71
2022/12/06 14:27:46;;;;;;;5.10;4.60;;;;;;;7.41;61.19;97847.56;8382110;28;20317;-71
2022/12/06 14:31:50;;;;;;;5.23;4.73;;;;;;;7.56;60.55;97873.72;8382747;28;20511;-70
2022/12/06 14:35:55;;;;;;;5.30;4.80;;;;;;;7.49;60.93;97870.50;8374092;28;20233;-70
2022/12/06 14:39:58;;;;;;;5.17;4.73;;;;;;;7.38;61.09;97878.56;8382833;28;20249;-70
2022/12/06 14:44:27;;;;;;;5.07;4.63;;;;;;;7.65;60.44;97875.97;8381988;28;20232;-70
2022/12/06 14:50:22;;;;;;;6.90;4.80;;;;;;;7.71;60.55;97877.50;8382727;28;20256;-70
2022/12/06 14:53:02;;;;;;;4.87;4.47;;;;;;;7.57;60.86;97867.66;8382010;28;20233;-69
2022/12/06 14:57:22;;;;;;;4.43;4.07;;;;;;;7.78;60.09;97881.56;8382369;28;20240;-70
2022/12/06 15:01:27;;;;;;;4.97;4.47;;;;;;;7.68;60.49;97880.19;8382158;28;20232;-70
2022/12/06 15:05:32;;;;;;;4.30;3.90;;;;;;;7.75;60.23;97874.78;8381642;28;20229;-70
2022/12/06 15:09:45;;;;;;;5.53;4.43;;;;;;;7.78;59.84;97879.81;8381550;28;20228;-70
2022/12/06 15:14:11;;;;;;;5.47;4.97;;;;;;;7.72;60.18;97874.03;8381546;28;20236;-71
2022/12/06 15:18:21;;;;;;;4.27;3.97;;;;;;;7.76;60.09;97873.03;8380673;28;20250;-70
2022/12/06 15:22:26;;;;;;;4.50;4.20;;;;;;;7.83;60.27;97875.34;8379816;28;20233;-71
2022/12/06 15:26:30;;;;;;;4.80;4.50;;;;;;;7.81;60.19;97872.00;8380867;28;20236;-71
2022/12/06 15:30:33;;;;;;;4.73;4.33;;;;;;;7.71;60.31;97869.78;8380972;28;20279;-71
2022/12/06 15:34:36;;;;;;;4.57;4.27;;;;;;;7.84;60.23;97873.59;8380876;28;20495;-70
2022/12/06 15:38:39;;;;;;;6.17;5.57;;;;;;;7.84;60.17;97865.88;8380351;28;20229;-70
2022/12/06 15:42:43;;;;;;;6.17;5.60;;;;;;;7.78;59.78;97869.50;8380236;28;20267;-70
2022/12/06 15:46:48;;;;;;;5.43;4.93;;;;;;;7.75;60.35;97854.16;8380383;28;20573;-70
2022/12/06 15:50:51;;;;;;;5.73;5.27;;;;;;;7.80;60.42;97872.88;8380090;28;20229;-70
2022/12/06 15:54:53;;;;;;;7.10;6.40;;;;;;;7.86;60.11;97866.66;8379748;28;20233;-70
2022/12/06 15:58:57;;;;;;;6.10;5.47;;;;;;;7.83;59.74;97869.38;8379903;28;20236;-70
2022/12/06 16:03:01;;;;;;;6.00;5.40;;;;;;;7.86;59.62;97874.38;8380140;28;20229;-70
2022/12/06 16:07:04;;;;;;;6.83;5.33;;;;;;;7.82;60.09;97881.41;8380293;28;20252;-70
2022/12/06 16:11:07;;;;;;;6.07;5.57;;;;;;;7.88;59.93;97874.34;8380116;28;20229;-72
2022/12/06 16:15:15;;;;;;;6.17;5.67;;;;;;;7.76;60.29;97883.34;8380013;28;20428;-71
2022/12/06 16:19:18;;;;;;;6.10;5.47;;;;;;;7.75;60.14;97879.94;8379527;28;20270;-70
2022/12/06 16:28:03;;;;;;;6.37;5.83;;;;;;;7.73;60.05;97884.31;8379082;28;20229;-70
2022/12/06 16:32:07;;;;;;;7.23;5.77;;;;;;;7.75;59.83;97882.50;8379462;28;20229;-70
2022/12/06 16:36:12;;;;;;;6.90;6.27;;;;;;;7.84;59.88;97889.06;8379298;28;20290;-70
2022/12/06 16:40:19;;;;;;;8.73;6.90;;;;;;;7.70;60.24;97886.16;8379233;28;20560;-70
2022/12/06 16:44:22;;;;;;;9.33;7.13;;;;;;;7.59;59.87;97874.44;8379231;28;20287;-70
2022/12/06 16:48:27;;;;;;;6.50;5.60;;;;;;;7.82;59.61;97889.16;8379554;28;20244;-71
2022/12/06 16:52:29;;;;;;;5.90;5.30;;;;;;;7.47;59.94;97882.59;8383436;28;20528;-70
2022/12/06 16:56:32;;;;;;;7.80;7.10;;;;;;;7.64;59.55;97887.19;8385660;28;20294;-70
2022/12/06 17:00:41;;;;;;;7.67;6.97;;;;;;;7.74;59.38;97887.72;8385499;28;20228;-70
2022/12/06 17:04:45;;;;;;;6.20;5.60;;;;;;;7.69;60.04;97887.88;8385376;28;20232;-70
2022/12/06 17:08:48;;;;;;;5.80;5.30;;;;;;;7.72;59.47;97871.47;8385419;28;20262;-72
2022/12/06 17:12:51;;;;;;;6.70;4.90;;;;;;;7.80;59.11;97880.59;8385384;28;20244;-71
2022/12/06 17:16:55;;;;;;;6.70;6.10;;;;;;;7.71;59.30;97880.06;8385060;28;20247;-70
2022/12/06 17:21:00;;;;;;;5.63;5.23;;;;;;;7.72;59.23;97880.03;8385147;28;20238;-71
2022/12/06 17:25:04;;;;;;;5.97;5.40;;;;;;;7.75;59.29;97879.94;8384640;28;20255;-71
2022/12/06 17:29:07;;;;;;;5.80;5.30;;;;;;;7.65;59.98;97888.84;8384640;28;20237;-71
2022/12/06 17:33:10;;;;;;;5.50;5.10;;;;;;;7.73;59.31;97884.31;8384900;28;20229;-70
2022/12/06 17:37:15;;;;;;;5.93;5.43;;;;;;;7.66;59.72;97892.31;8384623;28;20232;-71
2022/12/06 17:45:40;;;;;;;5.90;5.40;;;;;;;7.67;58.77;97889.66;8384379;28;20299;-70
2022/12/06 17:49:43;;;;;;;6.63;6.18;;;;;;;7.97;58.52;97895.50;8383678;28;20492;-70
2022/12/06 17:53:47;;;;;;;5.67;5.17;;;;;;;7.79;59.83;97898.72;8384046;28;20233;-69
2022/12/06 17:57:50;;;;;;;6.30;5.70;;;;;;;7.70;59.46;97897.28;8383925;28;20416;-70
2022/12/06 18:01:58;;;;;;;6.00;5.50;;;;;;;7.68;59.69;97891.34;8382721;28;20232;-70
2022/12/06 18:06:17;;;;;;;5.80;5.17;;;;;;;7.73;59.57;97889.47;8383820;28;20229;-70
2022/12/06 18:10:22;;;;;;;5.37;4.77;;;;;;;7.64;59.93;97889.78;8383272;28;20232;-71
2022/12/06 18:14:25;;;;;;;5.28;4.88;;;;;;;8.37;57.41;97899.22;8381733;28;20421;-71
2022/12/06 18:18:28;;;;;;;5.50;5.00;;;;;;;8.60;56.82;97903.59;8382137;28;20421;-73
2022/12/06 18:22:31;;;;;;;5.17;4.67;;;;;;;7.79;59.00;97901.31;8383276;28;20228;-74
2022/12/06 18:26:35;;;;;;;5.43;4.93;;;;;;;8.53;56.84;97903.84;8381509;28;20513;-74
2022/12/06 18:30:38;;;;;;;5.60;5.10;;;;;;;7.85;59.20;97906.25;8383324;28;20229;-73
2022/12/06 18:34:41;;;;;;;5.27;4.87;;;;;;;7.95;58.95;97899.03;8383035;28;20233;-75
2022/12/06 18:38:43;;;;;;;4.60;4.30;;;;;;;7.91;59.00;97900.88;8383046;28;20228;-75
2022/12/06 18:42:47;;;;;;;5.13;4.73;;;;;;;7.86;59.21;97897.59;8382777;28;20225;-73
2022/12/06 18:46:50;;;;;;;5.77;5.27;;;;;;;7.83;59.02;97890.81;8382441;28;20240;-73
2022/12/06 18:50:54;;;;;;;5.97;5.40;;;;;;;7.93;59.11;97893.91;8382215;28;20232;-72
2022/12/06 18:54:56;;;;;;;5.73;5.13;;;;;;;7.86;59.11;97896.75;8382474;28;20236;-72
2022/12/06 18:59:02;;;;;;;6.43;5.60;;;;;;;7.83;59.48;97890.00;8382224;28;20236;-72
2022/12/06 19:03:04;;;;;;;6.07;5.57;;;;;;;7.86;59.15;97894.19;8381903;28;20248;-73
2022/12/06 19:07:07;;;;;;;5.83;5.23;;;;;;;7.76;59.41;97886.75;8381898;28;20233;-73
2022/12/06 19:11:16;;;;;;;5.60;5.10;;;;;;;7.72;59.32;97892.91;8381645;28;20256;-73
2022/12/06 19:15:20;;;;;;;5.83;5.33;;;;;;;7.52;59.58;97891.03;8381368;28;20229;-72
2022/12/06 19:19:24;;;;;;;13.67;8.13;;;;;;;7.93;65.09;97899.06;8381464;28;20460;-73
2022/12/06 19:23:27;;;;;;;9.63;5.07;;;;;;;10.99;72.65;97906.53;8379659;28;20417;-72
2022/12/06 19:27:30;;;;;;;5.90;3.87;;;;;;;11.60;59.45;97900.16;8381469;28;20278;-71
2022/12/06 19:31:34;;;;;;;4.43;4.03;;;;;;;12.25;54.50;97900.34;8381327;28;20232;-72
2022/12/06 19:35:37;;;;;;;10.03;6.90;;;;;;;11.69;49.69;97897.09;8381286;28;20504;-72
2022/12/06 19:39:39;;;;;;;6.10;5.07;;;;;;;9.79;52.88;97904.06;8380578;28;20414;-73
2022/12/06 19:48:04;;;;;;;4.80;4.40;;;;;;;9.09;55.37;97902.59;8373941;28;20255;-73
2022/12/06 19:52:07;;;;;;;4.63;4.20;;;;;;;8.77;56.21;97905.50;8380715;28;20545;-73
2022/12/06 19:56:11;;;;;;;4.47;4.17;;;;;;;8.53;56.23;97901.28;8380495;28;20231;-73
2022/12/06 20:00:14;;;;;;;4.90;4.50;;;;;;;8.30;57.72;97899.50;8380629;28;20230;-72